»·PEaware :: ARG1301 KSEA-KGEG

ARG1301 :: KSEA-KGEG

FLIGHT INFORMATION

Flight Status: Arrived
Operator:
Aerolineas Argentinas
More flights by this operator :: More flights under this callsign
Pilot: Luis S. (63)
Aircraft: BOEING 737-800
(B738)
More flights by this aircraft type
Origin: KSEA Seattle-Tacoma Intl
United States
Destination: KGEG Spokane Intl
United States
More flights between these airports :: More routes between these airports
Route: +SEA6 SEA ZADON ZELAK ZIRAN ZOOMR ZOOMR1
File this flight plan on PilotEdge
Remarks:
Altitude:
(Current/Filed)
290ft
Speed:
(Current/Filed)
370kts
Departed: 06-Aug-18 09:11 AM
Arrived: 06-Aug-18 09:55 AM
Distance/Time
Traveled:
194nm/0:44
Distance/Time
To Go:
Arrived

Flight Plot

Page will automatically refresh every two minutes.

Flight plan parsing failed; only flown route is shown


Map Options




Map Legend


Flown Route
Filed Route
Departure Airport
Arrival Airport
Navaid (VOR, NDB)
Fix

Horizontal Profiles

Position Reports

Time Latitude Longitude Heading Altitude Ground
Speed
06-Aug-18 08:27 47.438468 -122.298315 81 442ft 0kts
06-Aug-18 08:28 47.438468 -122.298315 81 442ft 0kts
06-Aug-18 08:29 47.438468 -122.298315 81 442ft 0kts
06-Aug-18 08:30 47.438468 -122.298315 81 442ft 0kts
06-Aug-18 08:31 47.438468 -122.298315 81 442ft 0kts
06-Aug-18 08:32 47.438468 -122.298315 81 442ft 0kts
06-Aug-18 08:33 47.438468 -122.298315 81 442ft 0kts
06-Aug-18 08:34 47.438468 -122.298315 81 442ft 0kts
06-Aug-18 08:35 47.438468 -122.298315 81 442ft 0kts
06-Aug-18 08:36 47.438468 -122.298315 81 442ft 0kts
06-Aug-18 08:37 47.438468 -122.298315 81 442ft 0kts
06-Aug-18 08:38 47.438468 -122.298315 81 442ft 0kts
06-Aug-18 08:39 47.438468 -122.298315 81 442ft 0kts
06-Aug-18 08:40 47.438468 -122.298315 81 442ft 0kts
06-Aug-18 08:41 47.438468 -122.298315 81 442ft 0kts
06-Aug-18 08:42 47.438468 -122.298315 81 442ft 0kts
06-Aug-18 08:43 47.438468 -122.298315 81 442ft 0kts
06-Aug-18 08:44 47.438468 -122.298315 81 442ft 0kts
06-Aug-18 08:45 47.438468 -122.298315 81 442ft 0kts
06-Aug-18 08:46 47.438468 -122.298315 81 442ft 0kts
06-Aug-18 08:47 47.438468 -122.298315 81 442ft 0kts
06-Aug-18 08:48 47.438468 -122.298315 81 442ft 0kts
06-Aug-18 08:49 47.438468 -122.298315 81 442ft 0kts
06-Aug-18 08:50 47.438468 -122.298315 81 442ft 0kts
06-Aug-18 08:51 47.438468 -122.298315 81 442ft 0kts
06-Aug-18 08:52 47.438468 -122.298315 81 442ft 0kts
06-Aug-18 08:53 47.438468 -122.298315 81 442ft 0kts
06-Aug-18 08:54 47.438468 -122.298315 81 442ft 0kts
06-Aug-18 08:55 47.438468 -122.298315 81 442ft 0kts
06-Aug-18 08:56 47.438468 -122.298315 81 442ft 0kts
06-Aug-18 08:57 47.438468 -122.298315 81 442ft 0kts
06-Aug-18 08:58 47.438468 -122.298315 81 442ft 0kts
06-Aug-18 08:59 47.438468 -122.298315 81 442ft 0kts
06-Aug-18 09:00 47.438453 -122.298467 81 442ft 2kts
06-Aug-18 09:01 47.438208 -122.299434 351 442ft 2kts
06-Aug-18 09:02 47.439264 -122.299584 341 442ft 13kts
06-Aug-18 09:03 47.439894 -122.304794 270 442ft 15kts
06-Aug-18 09:04 47.443307 -122.306341 0 442ft 19kts
06-Aug-18 09:05 47.448897 -122.306277 0 442ft 23kts
06-Aug-18 09:06 47.455399 -122.306210 0 442ft 20kts
06-Aug-18 09:07 47.460870 -122.306160 0 442ft 18kts
06-Aug-18 09:08 47.463570 -122.306296 323 442ft 0kts
06-Aug-18 09:09 47.463570 -122.306296 323 442ft 0kts
06-Aug-18 09:10 47.463570 -122.306296 323 442ft 0kts
06-Aug-18 09:11 47.463266 -122.307762 177 442ft 7kts
06-Aug-18 09:12 47.425897 -122.309387 184 1942ft 196kts
06-Aug-18 09:13 47.363179 -122.310857 178 4438ft 246kts
06-Aug-18 09:14 47.293387 -122.308905 180 7217ft 267kts
06-Aug-18 09:15 47.228587 -122.268491 109 9966ft 284kts
06-Aug-18 09:16 47.252761 -122.158517 46 11989ft 318kts
06-Aug-18 09:17 47.320514 -122.065573 42 14111ft 341kts
06-Aug-18 09:18 47.389529 -121.965777 44 16325ft 350kts
06-Aug-18 09:19 47.457905 -121.862227 44 18393ft 362kts
06-Aug-18 09:20 47.530477 -121.753398 42 20407ft 380kts
06-Aug-18 09:21 47.569651 -121.615983 93 22760ft 379kts
06-Aug-18 09:22 47.554871 -121.459886 93 24820ft 394kts
06-Aug-18 09:23 47.554952 -121.295923 91 26832ft 406kts
06-Aug-18 09:24 47.552450 -121.128283 92 28649ft 414kts
06-Aug-18 09:25 47.548673 -120.951640 92 29219ft 449kts
06-Aug-18 09:26 47.545756 -120.763858 92 29196ft 459kts
06-Aug-18 09:27 47.542382 -120.574881 92 29183ft 460kts
06-Aug-18 09:28 47.537020 -120.386012 95 29170ft 460kts
06-Aug-18 09:29 47.526155 -120.198173 95 29169ft 459kts
06-Aug-18 09:30 47.515863 -120.009982 95 29170ft 460kts
06-Aug-18 09:31 47.506082 -119.821943 95 29159ft 460kts
06-Aug-18 09:32 47.496680 -119.634027 95 29158ft 460kts
06-Aug-18 09:33 47.486384 -119.445250 95 29158ft 459kts
06-Aug-18 09:34 47.476154 -119.257299 95 29165ft 459kts
06-Aug-18 09:35 47.465934 -119.069230 95 29169ft 459kts
06-Aug-18 09:36 47.455936 -118.884401 95 27647ft 438kts
06-Aug-18 09:37 47.447377 -118.711380 95 25622ft 411kts
06-Aug-18 09:38 47.438128 -118.548057 95 23604ft 388kts
06-Aug-18 09:39 47.429666 -118.393227 95 21598ft 371kts
06-Aug-18 09:40 47.431499 -118.245172 74 19597ft 357kts
06-Aug-18 09:41 47.464199 -118.109852 71 17608ft 346kts
06-Aug-18 09:42 47.493206 -117.976723 72 15613ft 336kts
06-Aug-18 09:43 47.532221 -117.855136 56 13632ft 328kts
06-Aug-18 09:44 47.581957 -117.744233 60 11639ft 321kts
06-Aug-18 09:45 47.610859 -117.622460 74 9666ft 303kts
06-Aug-18 09:46 47.633627 -117.510677 74 8969ft 270kts
06-Aug-18 09:47 47.654107 -117.410384 74 8862ft 245kts
06-Aug-18 09:48 47.673373 -117.314148 75 7891ft 244kts
06-Aug-18 09:49 47.695828 -117.223030 41 7099ft 228kts
06-Aug-18 09:50 47.740070 -117.244982 267 6152ft 204kts
06-Aug-18 09:51 47.725925 -117.323060 251 4991ft 194kts
06-Aug-18 09:52 47.710049 -117.395375 249 4590ft 179kts
06-Aug-18 09:53 47.684621 -117.447040 216 3924ft 150kts
06-Aug-18 09:54 47.653522 -117.485065 217 3053ft 145kts
06-Aug-18 09:55 47.626283 -117.525691 223 2384ft 77kts
06-Aug-18 09:56 47.620147 -117.536741 255 2384ft 0kts
06-Aug-18 09:57 47.620859 -117.537894 44 2384ft 16kts
06-Aug-18 09:58 47.623379 -117.535736 332 2384ft 7kts

Navigation Log

Ident Type
Flight plan parsing failed, navigation log unavailable